Time;durP1;ratioP1;P1;durP2;ratioP2;P2;SDS_P1;SDS_P2;PMS_P1;PMS_P2;Temp;Humidity;BMP_temperature;BMP_pressure;BME280_temperature;BME280_humidity;BME280_pressure;Samples;Min_cycle;Max_cycle;Signal;HPM_P1;HPM_P2
2022/07/25 00:00:11;;;;;;;10.50;9.50;;;20.10;99.90;21.20;97110.00;;;;5093696;28;20574;-69
2022/07/25 00:02:59;;;;;;;11.03;9.93;;;20.00;99.90;21.10;97101.00;;;;5096570;28;20194;-67
2022/07/25 00:05:48;;;;;;;11.27;10.07;;;19.90;99.90;20.90;97104.00;;;;5107568;28;20245;-67
2022/07/25 00:08:37;;;;;;;10.60;9.50;;;19.80;99.90;20.70;97104.00;;;;5101825;28;20210;-68
2022/07/25 00:11:26;;;;;;;11.37;10.27;;;19.70;99.90;20.60;97102.00;;;;5102753;28;20194;-67
2022/07/25 00:14:16;;;;;;;13.93;11.97;;;19.50;99.90;20.60;97102.00;;;;5097390;28;20207;-67
2022/07/25 00:17:04;;;;;;;11.40;10.30;;;19.50;99.90;20.40;97095.00;;;;5103584;28;20219;-66
2022/07/25 00:19:53;;;;;;;12.43;10.70;;;19.40;99.90;20.60;97093.00;;;;5108429;28;20206;-66
2022/07/25 00:22:42;;;;;;;12.47;11.27;;;19.30;99.90;20.40;97097.00;;;;5108023;28;20209;-66
2022/07/25 00:25:31;;;;;;;13.63;11.17;;;19.30;99.90;20.30;97094.00;;;;5114295;27;20211;-66
2022/07/25 00:28:20;;;;;;;12.43;10.33;;;19.20;99.90;20.20;97092.00;;;;5097470;27;20212;-67
2022/07/25 00:31:10;;;;;;;12.87;11.60;;;19.10;99.90;20.20;97080.00;;;;5111477;27;20195;-67
2022/07/25 00:33:59;;;;;;;11.53;10.33;;;19.00;99.90;20.00;97093.00;;;;5105904;27;20222;-67
2022/07/25 00:36:48;;;;;;;10.77;9.73;;;19.00;99.90;19.80;97089.00;;;;5111985;27;20230;-67
2022/07/25 00:39:37;;;;;;;15.87;12.07;;;18.90;99.90;20.00;97087.00;;;;5110740;27;20205;-67
2022/07/25 00:42:25;;;;;;;13.73;11.70;;;18.80;99.90;20.00;97069.00;;;;5109282;27;20599;-69
2022/07/25 00:45:14;;;;;;;14.23;11.93;;;18.80;99.90;20.10;97080.00;;;;5105553;27;20543;-68
2022/07/25 00:48:06;;;;;;;12.67;11.37;;;18.80;99.90;20.30;97079.00;;;;5113885;27;20210;-68
2022/07/25 00:50:55;;;;;;;14.73;11.80;;;18.80;99.90;20.40;97069.00;;;;5095983;27;20195;-67
2022/07/25 00:53:45;;;;;;;17.07;12.23;;;18.90;99.90;20.40;97071.00;;;;5107069;27;20199;-67
2022/07/25 00:56:34;;;;;;;12.17;10.47;;;18.90;99.90;20.10;97076.00;;;;5110263;28;20833;-68
2022/07/25 00:59:23;;;;;;;13.47;10.23;;;18.90;99.90;19.80;97063.00;;;;5105739;27;20203;-69
2022/07/25 01:02:12;;;;;;;12.33;10.83;;;18.90;99.90;19.80;97068.00;;;;5108379;27;20219;-69
2022/07/25 01:05:02;;;;;;;15.20;11.77;;;18.80;99.90;19.90;97069.00;;;;5107711;27;20201;-69
2022/07/25 01:07:52;;;;;;;13.07;11.53;;;18.70;99.90;20.00;97069.00;;;;5123396;22;20229;-64
2022/07/25 01:10:41;;;;;;;11.97;10.67;;;18.70;99.90;20.40;97060.00;;;;5108966;28;20685;-64
2022/07/25 01:13:33;;;;;;;12.73;11.40;;;18.70;99.90;20.50;97065.00;;;;5105686;27;20201;-64
2022/07/25 01:16:22;;;;;;;11.53;9.97;;;18.90;99.90;20.70;97056.00;;;;5096984;27;20225;-64
2022/07/25 01:19:10;;;;;;;12.33;10.27;;;19.00;99.90;20.80;97057.00;;;;5113911;27;20548;-64
2022/07/25 01:22:01;;;;;;;11.80;10.10;;;19.00;99.90;20.50;97059.00;;;;5102826;27;20230;-65
2022/07/25 01:24:49;;;;;;;11.73;10.30;;;19.10;99.90;20.30;97046.00;;;;5109269;27;20198;-65
2022/07/25 01:27:38;;;;;;;12.30;10.73;;;19.00;99.90;20.50;97050.00;;;;5114817;27;20227;-63
2022/07/25 01:30:27;;;;;;;12.43;11.13;;;19.00;99.90;20.60;97042.00;;;;5100658;27;21833;-64
2022/07/25 01:33:16;;;;;;;11.17;9.97;;;19.10;99.90;20.50;97042.00;;;;5109673;27;20562;-65
2022/07/25 01:36:06;;;;;;;10.80;9.93;;;19.10;99.90;20.40;97037.00;;;;5109013;27;20696;-65
2022/07/25 01:38:56;;;;;;;10.43;9.43;;;19.10;99.90;20.10;97038.00;;;;5108019;27;20223;-64
2022/07/25 01:41:45;;;;;;;13.47;11.00;;;18.90;99.90;19.70;97032.00;;;;5111695;27;20226;-66
2022/07/25 01:44:33;;;;;;;15.03;11.03;;;18.80;99.90;19.80;97038.00;;;;5104479;27;20202;-64
2022/07/25 01:47:22;;;;;;;13.27;11.00;;;18.70;99.90;20.10;97029.00;;;;5100944;27;20225;-65
2022/07/25 01:50:11;;;;;;;11.90;10.70;;;18.70;99.90;20.20;97028.00;;;;5115206;27;20206;-65
2022/07/25 01:53:00;;;;;;;11.60;10.40;;;18.70;99.90;20.20;97028.00;;;;5100825;27;20198;-65
2022/07/25 01:55:50;;;;;;;13.83;10.33;;;18.70;99.90;20.20;97016.00;;;;5108494;27;20197;-64
2022/07/25 01:58:39;;;;;;;12.63;9.47;;;18.80;99.90;20.30;97018.00;;;;5110485;27;20186;-64
2022/07/25 02:01:27;;;;;;;12.23;10.83;;;18.80;99.90;20.10;97018.00;;;;5112088;27;20218;-65
2022/07/25 02:04:16;;;;;;;12.10;10.90;;;18.80;99.90;19.80;97020.00;;;;5110691;27;20209;-64
2022/07/25 02:07:05;;;;;;;12.73;11.50;;;18.70;99.90;19.70;97017.00;;;;5102872;27;20223;-65
2022/07/25 02:09:54;;;;;;;11.30;10.17;;;18.60;99.90;19.50;97009.00;;;;5109814;27;20689;-64
2022/07/25 02:12:45;;;;;;;12.90;11.00;;;18.50;99.90;19.40;97011.00;;;;5098671;27;20669;-65
2022/07/25 02:15:35;;;;;;;15.23;11.17;;;18.40;99.90;19.50;97011.00;;;;5107549;27;20599;-64
2022/07/25 02:18:24;;;;;;;12.43;11.13;;;18.30;99.90;19.50;97007.00;;;;5109483;27;20205;-64
2022/07/25 02:21:13;;;;;;;12.03;10.83;;;18.30;99.90;19.30;97001.00;;;;5108888;27;20202;-65
2022/07/25 02:24:02;;;;;;;11.70;10.57;;;18.20;99.90;19.40;97005.00;;;;5111370;27;20317;-64
2022/07/25 02:26:51;;;;;;;11.87;10.67;;;18.20;99.90;19.10;97005.00;;;;5110167;27;20632;-64
2022/07/25 02:29:41;;;;;;;12.97;11.53;;;18.10;99.90;18.90;97000.00;;;;5098094;28;20201;-65
2022/07/25 02:32:30;;;;;;;12.53;11.23;;;18.00;99.90;18.70;97003.00;;;;5100426;27;20670;-65
2022/07/25 02:35:18;;;;;;;13.83;12.40;;;17.90;99.90;18.90;96996.00;;;;5102423;27;20202;-64
2022/07/25 02:38:08;;;;;;;12.93;11.50;;;17.80;99.90;19.20;96998.00;;;;5112113;27;20676;-65
2022/07/25 02:40:56;;;;;;;11.20;10.13;;;17.80;99.90;19.20;97004.00;;;;5110826;27;20673;-64
2022/07/25 02:43:45;;;;;;;13.93;11.17;;;17.80;99.90;19.00;96998.00;;;;5108491;27;20209;-64
2022/07/25 02:46:35;;;;;;;13.27;12.07;;;17.80;99.90;18.90;96997.00;;;;5110489;27;20221;-64
2022/07/25 02:49:24;;;;;;;12.07;10.87;;;17.80;99.90;18.80;96990.00;;;;5115389;27;20687;-64
2022/07/25 02:52:13;;;;;;;13.00;11.70;;;17.70;99.90;18.80;96993.00;;;;5101859;27;20198;-64
2022/07/25 02:55:01;;;;;;;10.53;9.53;;;17.60;99.90;18.90;96998.00;;;;5109967;27;20199;-65
2022/07/25 02:57:52;;;;;;;12.90;11.70;;;17.60;99.90;18.70;96997.00;;;;5105124;27;20218;-64
2022/07/25 03:00:41;;;;;;;12.53;11.40;;;17.60;99.90;18.70;96992.00;;;;5104680;27;20201;-63
2022/07/25 03:03:31;;;;;;;14.57;12.00;;;17.60;99.90;18.40;96992.00;;;;5109092;27;20226;-64
2022/07/25 03:06:20;;;;;;;12.27;11.07;;;17.50;99.90;18.60;96993.00;;;;5111502;27;20248;-65
2022/07/25 03:09:08;;;;;;;12.67;10.87;;;17.50;99.90;18.70;97003.00;;;;5108403;27;20199;-65
2022/07/25 03:11:57;;;;;;;12.63;11.37;;;17.50;99.90;18.20;96996.00;;;;5105361;27;20210;-64
2022/07/25 03:14:46;;;;;;;13.73;11.37;;;17.40;99.90;18.60;96999.00;;;;5109115;27;20230;-64
2022/07/25 03:17:35;;;;;;;13.67;12.23;;;17.40;99.90;18.90;96986.00;;;;5106081;27;20683;-64
2022/07/25 03:20:25;;;;;;;12.67;11.43;;;17.40;99.90;18.70;96983.00;;;;5111456;27;20195;-64
2022/07/25 03:23:14;;;;;;;15.47;11.47;;;17.40;99.90;18.30;96984.00;;;;5110676;28;20300;-63
2022/07/25 03:26:02;;;;;;;19.40;10.80;;;17.30;99.90;18.50;96983.00;;;;5108336;27;20670;-65
2022/07/25 03:28:51;;;;;;;11.87;10.40;;;17.30;99.90;18.60;96980.00;;;;5103559;28;20207;-64
2022/07/25 03:31:40;;;;;;;12.03;10.73;;;17.30;99.90;18.50;96989.00;;;;5100674;28;20202;-65
2022/07/25 03:34:28;;;;;;;12.37;10.97;;;17.30;99.90;18.20;96989.00;;;;5109541;28;20198;-64
2022/07/25 03:37:18;;;;;;;14.00;11.10;;;17.20;99.90;18.50;96990.00;;;;5101815;28;20222;-64
2022/07/25 03:40:09;;;;;;;13.05;11.80;;;17.20;99.90;18.40;97000.00;;;;5108833;28;20400;-64
2022/07/25 03:42:58;;;;;;;12.97;11.43;;;17.20;99.90;18.50;96987.00;;;;5115659;27;20228;-65
2022/07/25 03:45:46;;;;;;;13.00;10.20;;;17.20;99.90;18.40;96987.00;;;;5109429;28;20195;-63
2022/07/25 03:48:35;;;;;;;15.17;11.30;;;17.20;99.90;18.10;96984.00;;;;5110618;28;20207;-65
2022/07/25 03:51:24;;;;;;;12.90;11.63;;;17.20;99.90;18.20;96989.00;;;;5120696;28;20198;-65
2022/07/25 03:54:14;;;;;;;11.60;10.37;;;17.10;99.90;18.40;96988.00;;;;5103812;28;20218;-64
2022/07/25 03:57:04;;;;;;;12.50;11.17;;;17.10;99.90;18.50;96992.00;;;;5103613;28;20215;-64
2022/07/25 03:59:52;;;;;;;13.73;12.43;;;17.20;99.90;18.50;96983.00;;;;5113638;27;20696;-64
2022/07/25 04:02:41;;;;;;;12.40;10.90;;;17.20;99.90;18.30;96987.00;;;;5100245;27;20222;-64
2022/07/25 04:05:30;;;;;;;13.83;12.17;;;17.20;99.90;18.20;96988.00;;;;5112568;28;20194;-64
2022/07/25 04:08:19;;;;;;;12.47;11.17;;;17.70;99.90;18.00;96976.00;;;;5111339;27;20701;-64
2022/07/25 04:11:09;;;;;;;14.67;12.77;;;17.10;99.90;18.10;96983.00;;;;5110644;28;20206;-63
2022/07/25 04:13:58;;;;;;;13.40;12.00;;;17.00;99.90;18.50;96979.00;;;;5103826;28;20215;-63
2022/07/25 04:16:46;;;;;;;12.63;11.40;;;17.10;99.90;18.60;96980.00;;;;5111683;28;20230;-64
2022/07/25 04:19:35;;;;;;;14.73;12.27;;;17.10;99.90;18.60;96972.00;;;;5096572;27;20552;-64
2022/07/25 04:22:24;;;;;;;16.47;11.53;;;17.20;99.90;18.30;96975.00;;;;5109436;28;20593;-65
2022/07/25 04:25:13;;;;;;;16.20;12.87;;;17.20;99.90;18.40;96973.00;;;;5111737;28;20190;-65
2022/07/25 04:28:03;;;;;;;15.30;12.07;;;17.10;99.90;18.40;96986.00;;;;5110516;28;20224;-64
2022/07/25 04:30:52;;;;;;;14.93;11.87;;;17.20;99.90;18.50;96980.00;;;;5099791;28;20639;-64
2022/07/25 04:33:42;;;;;;;12.67;11.47;;;17.20;99.90;18.40;96978.00;;;;5110502;28;20206;-64
2022/07/25 04:36:31;;;;;;;14.23;12.83;;;17.20;99.90;18.70;96976.00;;;;5102274;28;20229;-65
2022/07/25 04:39:20;;;;;;;14.20;11.57;;;17.30;99.90;18.90;96978.00;;;;5092642;28;20195;-64
2022/07/25 04:42:08;;;;;;;15.23;10.27;;;17.30;99.90;19.00;96971.00;;;;5110818;27;21030;-64
2022/07/25 04:44:58;;;;;;;15.43;11.47;;;17.40;99.90;19.20;96963.00;;;;5114634;27;20213;-65
2022/07/25 04:47:47;;;;;;;12.00;10.80;;;17.50;99.90;19.20;96967.00;;;;5099397;28;20223;-64
2022/07/25 04:50:36;;;;;;;11.93;10.73;;;17.60;99.90;19.20;96965.00;;;;5093852;28;20218;-63
2022/07/25 04:53:25;;;;;;;11.07;9.97;;;17.70;99.90;19.30;96963.00;;;;5100562;28;20200;-64
2022/07/25 04:56:13;;;;;;;12.27;10.73;;;17.80;99.90;19.40;96969.00;;;;5101431;28;20705;-64
2022/07/25 04:59:02;;;;;;;11.17;10.00;;;17.90;99.90;19.00;96962.00;;;;5097029;28;20213;-63
2022/07/25 05:01:53;;;;;;;13.43;10.10;;;17.90;99.90;19.30;96959.00;;;;5098638;27;20199;-63
2022/07/25 05:04:42;;;;;;;12.93;11.63;;;17.90;99.90;19.20;96966.00;;;;5099447;28;20612;-65
2022/07/25 05:07:32;;;;;;;12.73;9.53;;;18.00;99.90;19.30;96957.00;;;;5100351;27;20238;-64
2022/07/25 05:10:21;;;;;;;11.67;10.53;;;18.00;99.90;19.60;96966.00;;;;5100369;28;20206;-64
2022/07/25 05:13:10;;;;;;;13.83;12.43;;;18.20;99.90;19.40;96962.00;;;;5102473;27;20402;-64
2022/07/25 05:15:58;;;;;;;12.53;11.23;;;18.10;99.90;19.50;96962.00;;;;5111441;27;20202;-66
2022/07/25 05:18:48;;;;;;;11.17;10.10;;;18.20;99.90;19.60;96952.00;;;;5097829;28;20209;-64
2022/07/25 05:21:38;;;;;;;13.40;10.97;;;18.20;99.90;19.70;96953.00;;;;5092154;28;20196;-65
2022/07/25 05:24:26;;;;;;;11.77;9.73;;;18.40;99.90;19.60;96954.00;;;;5100473;28;20219;-65
2022/07/25 05:27:15;;;;;;;11.27;9.80;;;18.40;99.90;19.90;96950.00;;;;5105858;27;20226;-66
2022/07/25 05:30:05;;;;;;;10.30;9.30;;;18.50;99.90;19.90;96944.00;;;;5118402;27;20202;-66
2022/07/25 05:32:54;;;;;;;12.30;10.50;;;18.60;99.90;20.10;96951.00;;;;5110546;28;20213;-63
2022/07/25 05:35:44;;;;;;;12.03;10.90;;;18.70;99.90;20.20;96948.00;;;;5111613;28;20229;-65
2022/07/25 05:38:33;;;;;;;12.70;11.40;;;18.80;99.90;20.20;96948.00;;;;5106920;27;20211;-64
2022/07/25 05:41:22;;;;;;;12.10;10.87;;;18.80;99.90;20.50;96946.00;;;;5103187;28;20190;-63
2022/07/25 05:44:10;;;;;;;12.47;11.37;;;18.90;99.90;20.70;96939.00;;;;5106903;27;20223;-64
2022/07/25 05:46:59;;;;;;;12.30;11.00;;;19.10;99.90;20.70;96945.00;;;;5098085;28;20230;-63
2022/07/25 05:49:48;;;;;;;13.50;10.73;;;19.20;99.90;20.90;96956.00;;;;5107987;27;20228;-65
2022/07/25 05:52:38;;;;;;;15.23;12.27;;;19.30;99.90;20.70;96946.00;;;;5109789;28;20546;-65
2022/07/25 05:55:27;;;;;;;13.90;12.47;;;19.40;99.90;20.80;96955.00;;;;5109937;27;20203;-63
2022/07/25 05:58:15;;;;;;;14.23;12.17;;;19.40;99.90;20.90;96946.00;;;;5096519;27;20198;-64
2022/07/25 06:01:04;;;;;;;12.83;10.60;;;19.40;99.90;20.90;96942.00;;;;5105578;27;20210;-63
2022/07/25 06:03:53;;;;;;;15.63;12.40;;;19.50;99.90;20.90;96942.00;;;;5108648;28;20222;-65
2022/07/25 06:06:42;;;;;;;12.97;11.63;;;19.50;99.90;21.10;96934.00;;;;5090032;28;20235;-64
2022/07/25 06:09:32;;;;;;;14.53;13.10;;;19.60;99.90;21.70;96932.00;;;;5118874;27;20569;-64
2022/07/25 06:12:20;;;;;;;14.73;13.07;;;19.70;99.90;21.80;96927.00;;;;5104245;28;20585;-64
2022/07/25 06:15:10;;;;;;;20.47;14.67;;;19.90;99.90;22.10;96924.00;;;;5102231;28;20214;-63
2022/07/25 06:17:59;;;;;;;15.90;13.53;;;20.10;99.90;22.40;96936.00;;;;5098613;27;20233;-64
2022/07/25 06:20:48;;;;;;;15.13;13.53;;;20.30;99.90;22.60;96925.00;;;;5100236;28;20195;-64
2022/07/25 06:23:37;;;;;;;14.93;12.87;;;20.50;99.90;22.80;96918.00;;;;5100524;28;20233;-65
2022/07/25 06:26:27;;;;;;;17.83;13.03;;;20.70;99.90;23.00;96914.00;;;;5096697;27;20218;-65
2022/07/25 06:29:15;;;;;;;14.20;12.30;;;21.00;99.90;23.20;96912.00;;;;5089874;28;20659;-64
2022/07/25 06:32:05;;;;;;;15.00;13.40;;;21.10;99.90;23.30;96913.00;;;;5105414;28;20960;-64
2022/07/25 06:34:53;;;;;;;13.43;12.13;;;21.30;99.90;23.60;96912.00;;;;5103490;28;20693;-65
2022/07/25 06:37:42;;;;;;;13.77;11.17;;;21.50;99.90;23.80;96912.00;;;;5093352;27;20223;-65
2022/07/25 06:40:31;;;;;;;15.60;12.40;;;21.70;99.90;24.10;96914.00;;;;5094112;28;20203;-65
2022/07/25 06:43:21;;;;;;;14.03;12.67;;;21.90;99.90;24.20;96915.00;;;;5092343;28;20199;-65
2022/07/25 06:46:10;;;;;;;11.80;10.43;;;22.10;99.90;24.40;96909.00;;;;5102125;28;20215;-65
2022/07/25 06:48:59;;;;;;;13.50;12.10;;;22.30;99.90;24.70;96906.00;;;;5101727;28;20670;-65
2022/07/25 06:51:48;;;;;;;17.50;15.50;;;22.40;99.90;24.80;96916.00;;;;5096852;28;20587;-65
2022/07/25 06:54:36;;;;;;;12.93;11.73;;;22.60;99.90;25.00;96906.00;;;;5107823;27;20202;-65
2022/07/25 06:57:25;;;;;;;13.87;11.33;;;22.80;99.90;25.10;96907.00;;;;5090119;27;20241;-64
2022/07/25 07:00:16;;;;;;;14.43;11.10;;;22.90;99.90;25.40;96910.00;;;;5090002;28;20203;-65
2022/07/25 07:03:05;;;;;;;12.47;10.13;;;23.10;99.90;25.50;96907.00;;;;5084583;27;20563;-65
2022/07/25 07:05:54;;;;;;;12.70;10.43;;;23.30;99.90;25.70;96903.00;;;;5085199;27;20214;-64
2022/07/25 07:08:43;;;;;;;17.97;10.80;;;23.40;99.90;25.80;96904.00;;;;5082726;28;20214;-67
2022/07/25 07:11:33;;;;;;;11.63;10.50;;;23.60;99.90;26.00;96903.00;;;;5105139;27;20216;-66
2022/07/25 07:14:22;;;;;;;12.23;10.63;;;23.70;99.90;26.20;96901.00;;;;5104941;28;20569;-66
2022/07/25 07:17:12;;;;;;;11.47;9.70;;;23.90;99.90;26.50;96898.00;;;;5100944;28;20236;-66
2022/07/25 07:20:01;;;;;;;10.97;9.87;;;24.10;99.90;26.70;96887.00;;;;5101191;28;20221;-66
2022/07/25 07:22:49;;;;;;;11.13;10.03;;;24.30;99.90;26.60;96893.00;;;;5095831;27;20204;-66
2022/07/25 07:25:38;;;;;;;11.40;9.53;;;24.50;99.90;26.70;96888.00;;;;5099278;28;20228;-66
2022/07/25 07:28:27;;;;;;;12.83;9.83;;;24.60;99.90;26.90;96896.00;;;;5098070;28;20648;-66
2022/07/25 07:31:17;;;;;;;11.63;9.63;;;24.80;99.90;27.00;96900.00;;;;5102610;28;21482;-66
2022/07/25 07:34:07;;;;;;;9.67;8.67;;;24.90;99.90;27.00;96907.00;;;;5096924;28;20344;-66
2022/07/25 07:36:56;;;;;;;10.00;9.03;;;25.10;99.90;26.90;96903.00;;;;5100484;28;20238;-66
2022/07/25 07:39:45;;;;;;;9.60;8.70;;;25.10;99.90;26.90;96906.00;;;;5096075;28;20208;-66
2022/07/25 07:42:39;;;;;;;11.03;10.00;;;25.10;99.90;26.70;96892.00;;;;5104053;27;20580;-66
2022/07/25 07:45:27;;;;;;;11.97;9.53;;;25.10;99.90;27.10;96896.00;;;;5099818;27;20216;-65
2022/07/25 07:48:16;;;;;;;8.93;8.13;;;25.20;99.90;27.50;96893.00;;;;5105135;28;20199;-65
2022/07/25 07:51:06;;;;;;;11.20;9.73;;;25.30;99.90;27.70;96891.00;;;;5095888;28;20271;-66
2022/07/25 07:57:01;;;;;;;12.03;9.33;;;25.70;99.90;27.90;96890.00;;;;5103418;28;20225;-65
2022/07/25 07:59:50;;;;;;;9.57;8.57;;;25.90;99.90;28.00;96888.00;;;;5098738;28;20209;-66
2022/07/25 08:02:44;;;;;;;9.43;8.63;;;26.00;99.90;28.20;96879.00;;;;5090902;28;20206;-66
2022/07/25 08:05:37;;;;;;;10.87;9.23;;;26.10;99.90;28.30;96883.00;;;;5092459;28;20719;-66
2022/07/25 08:08:27;;;;;;;8.40;7.70;;;26.30;99.90;28.60;96888.00;;;;5092768;28;20207;-66
2022/07/25 08:11:18;;;;;;;9.43;8.47;;;26.40;99.90;28.40;96876.00;;;;5097381;28;20203;-65
2022/07/25 08:14:07;;;;;;;9.93;9.03;;;26.50;99.90;28.80;96865.00;;;;5104376;28;20188;-65
2022/07/25 08:16:57;;;;;;;11.00;9.70;;;26.70;99.90;29.00;96875.00;;;;5095137;28;20222;-65
2022/07/25 08:19:46;;;;;;;9.40;8.53;;;26.80;99.90;29.30;96864.00;;;;5085697;28;20199;-66
2022/07/25 08:22:39;;;;;;;9.87;8.60;;;27.00;99.90;29.50;96866.00;;;;5099883;28;20201;-65
2022/07/25 08:25:29;;;;;;;9.17;8.23;;;27.10;99.90;29.70;96873.00;;;;5100303;28;20727;-65
2022/07/25 08:28:19;;;;;;;9.00;8.23;;;27.30;99.90;29.80;96870.00;;;;5085978;28;20192;-65
2022/07/25 08:31:07;;;;;;;9.23;8.23;;;27.40;99.90;30.00;96871.00;;;;5101613;28;20203;-65
2022/07/25 08:33:57;;;;;;;8.83;8.13;;;27.50;99.90;29.70;96867.00;;;;5097421;28;20209;-64
2022/07/25 08:36:46;;;;;;;10.07;8.97;;;27.60;99.90;29.90;96861.00;;;;5106062;28;20720;-64
2022/07/25 08:39:35;;;;;;;10.00;8.43;;;27.70;99.90;30.00;96860.00;;;;5102083;28;20203;-64
2022/07/25 08:42:25;;;;;;;9.03;7.90;;;27.80;99.90;29.80;96855.00;;;;5106266;28;20207;-65
2022/07/25 08:45:16;;;;;;;9.53;8.57;;;27.90;99.90;30.10;96850.00;;;;5095351;28;20231;-65
2022/07/25 08:48:06;;;;;;;8.80;8.00;;;27.90;99.90;30.30;96858.00;;;;5101303;28;20224;-65
2022/07/25 08:50:56;;;;;;;8.83;8.03;;;28.00;99.90;30.10;96838.00;;;;5098000;28;20215;-65
2022/07/25 08:53:45;;;;;;;8.57;7.77;;;28.10;99.90;30.50;96845.00;;;;5101149;28;20210;-65
2022/07/25 08:56:34;;;;;;;9.67;8.77;;;28.20;99.90;30.70;96846.00;;;;5100229;28;20278;-66
2022/07/25 08:59:24;;;;;;;9.83;8.90;;;28.30;99.90;30.80;96838.00;;;;5106634;28;20671;-65
2022/07/25 09:02:14;;;;;;;9.40;8.57;;;28.40;99.90;30.30;96834.00;;;;5094344;28;20205;-65
2022/07/25 09:05:04;;;;;;;9.13;8.30;;;28.50;99.90;30.60;96823.00;;;;5100178;28;20644;-65
2022/07/25 09:07:54;;;;;;;9.60;8.47;;;28.60;99.90;30.80;96834.00;;;;5101787;28;20821;-66
2022/07/25 09:10:47;;;;;;;11.30;9.10;;;28.70;99.90;30.90;96829.00;;;;5104172;28;20214;-65
2022/07/25 09:13:39;;;;;;;10.30;9.20;;;28.80;99.90;30.60;96821.00;;;;5094095;28;20213;-65
2022/07/25 09:16:34;;;;;;;12.53;8.37;;;28.80;99.90;30.90;96829.00;;;;5101472;28;20230;-65
2022/07/25 09:19:25;;;;;;;9.00;8.10;;;28.80;99.90;31.30;96822.00;;;;5105666;28;20212;-65
2022/07/25 09:22:13;;;;;;;9.63;8.73;;;28.90;99.90;31.50;96816.00;;;;5105196;27;20200;-65
2022/07/25 09:25:02;;;;;;;8.70;7.80;;;29.10;99.90;31.50;96809.00;;;;5102873;28;20233;-65
2022/07/25 09:27:51;;;;;;;8.90;8.18;;;29.20;99.40;31.90;96818.00;;;;5102718;28;20221;-65
2022/07/25 09:30:41;;;;;;;12.13;9.30;;;29.40;99.60;31.40;96807.00;;;;5103535;28;20704;-65
2022/07/25 09:33:32;;;;;;;9.68;8.82;;;29.50;99.10;31.90;96805.00;;;;5099171;28;20256;-65
2022/07/25 09:36:21;;;;;;;9.20;8.30;;;29.60;99.70;31.90;96794.00;;;;5107624;28;20712;-65
2022/07/25 09:39:10;;;;;;;9.25;8.45;;;29.80;99.30;30.60;96789.00;;;;5108302;28;20205;-66
2022/07/25 09:41:59;;;;;;;9.18;8.40;;;29.80;96.60;31.00;96785.00;;;;5092669;28;20210;-65
2022/07/25 09:45:06;;;;;;;11.32;8.65;;;29.70;96.00;31.40;96783.00;;;;5107461;27;20202;-65
2022/07/25 09:47:57;;;;;;;11.37;8.93;;;29.60;96.90;32.00;96780.00;;;;5108507;28;20216;-66
2022/07/25 09:50:48;;;;;;;8.80;7.93;;;29.70;97.40;32.10;96777.00;;;;5098825;28;20542;-65
2022/07/25 09:53:37;;;;;;;11.00;8.73;;;29.90;98.40;31.20;96772.00;;;;5101439;28;20202;-66
2022/07/25 09:56:25;;;;;;;10.95;9.20;;;29.80;95.30;31.70;96775.00;;;;5098343;28;20219;-66
2022/07/25 09:59:14;;;;;;;9.85;8.95;;;29.80;95.00;32.50;96776.00;;;;5103752;28;20584;-65
2022/07/25 10:02:10;;;;;;;9.40;8.32;;;30.00;95.70;32.20;96772.00;;;;5105140;28;20204;-64
2022/07/25 10:05:13;;;;;;;10.18;9.18;;;30.10;94.70;33.00;96776.00;;;;5103559;28;20199;-63
2022/07/25 10:08:07;;;;;;;9.90;8.95;;;30.40;95.60;33.00;96770.00;;;;5099596;28;20224;-63
2022/07/25 10:10:56;;;;;;;9.40;8.50;;;30.60;95.20;31.90;96756.00;;;;5098534;27;20213;-65
2022/07/25 10:13:45;;;;;;;9.50;8.70;;;30.60;93.30;30.60;96746.00;;;;5094133;28;20215;-69
2022/07/25 10:16:45;;;;;;;9.48;8.57;;;30.20;92.80;31.30;96745.00;;;;5099938;28;20233;-65
2022/07/25 10:19:42;;;;;;;10.48;9.38;;;30.00;94.40;32.80;96746.00;;;;5090377;28;20285;-65
2022/07/25 10:22:39;;;;;;;10.35;9.45;;;30.10;94.60;32.30;96750.00;;;;5101571;28;20218;-65
2022/07/25 10:25:44;;;;;;;9.02;8.23;;;30.40;93.00;32.20;96745.00;;;;5101746;28;20222;-66
2022/07/25 10:28:43;;;;;;;9.90;8.98;;;30.60;94.20;31.80;96732.00;;;;5089429;28;20213;-66
2022/07/25 10:31:38;;;;;;;10.80;9.35;;;30.40;93.50;32.20;96732.00;;;;5097527;28;20192;-64
2022/07/25 10:34:30;;;;;;;10.05;9.05;;;30.40;93.10;33.00;96723.00;;;;5097023;28;20754;-67
2022/07/25 10:37:26;;;;;;;10.13;9.13;;;30.60;92.80;33.40;96716.00;;;;5101073;28;20286;-65
2022/07/25 10:40:27;;;;;;;10.27;9.27;;;30.80;92.40;32.70;96718.00;;;;5099017;28;20207;-66
2022/07/25 10:43:21;;;;;;;11.70;7.95;;;31.10;93.70;33.60;96717.00;;;;5102569;28;20222;-65
2022/07/25 10:46:15;;;;;;;9.30;8.50;;;31.20;92.90;34.00;96714.00;;;;5101312;28;20235;-65
2022/07/25 10:49:06;;;;;;;10.23;9.20;;;31.50;92.90;33.30;96704.00;;;;5098847;28;20211;-65
2022/07/25 10:51:59;;;;;;;10.02;9.02;;;31.70;91.70;33.50;96705.00;;;;5093290;28;20206;-65
2022/07/25 10:54:54;;;;;;;9.18;7.90;;;31.70;89.00;33.90;96701.00;;;;5104883;28;20208;-65
2022/07/25 10:57:43;;;;;;;10.07;9.18;;;31.70;90.50;34.40;96685.00;;;;5096696;27;20226;-65
2022/07/25 11:00:45;;;;;;;9.50;8.70;;;31.90;93.10;34.40;96688.00;;;;5089227;27;20249;-66
2022/07/25 11:03:34;;;;;;;10.38;9.02;;;32.10;92.00;34.10;96680.00;;;;5113195;27;20217;-67
2022/07/25 11:06:34;;;;;;;9.68;8.75;;;32.20;91.10;33.60;96680.00;;;;5107221;27;20245;-66
2022/07/25 11:09:26;;;;;;;9.40;8.55;;;32.40;86.80;34.20;96683.00;;;;5110212;27;20203;-65
2022/07/25 11:12:16;;;;;;;9.43;8.57;;;32.40;90.10;33.00;96666.00;;;;5103038;27;20687;-66
2022/07/25 11:15:07;;;;;;;9.40;8.30;;;32.20;85.40;33.10;96666.00;;;;5105890;27;20723;-66
2022/07/25 11:17:57;;;;;;;9.52;8.73;;;32.00;86.80;33.20;96664.00;;;;5103461;28;20606;-68
2022/07/25 11:20:46;;;;;;;9.45;8.73;;;31.90;87.90;33.00;96653.00;;;;5095928;28;20220;-67
2022/07/25 11:23:36;;;;;;;10.57;9.57;;;31.90;88.50;34.10;96660.00;;;;5097284;28;20213;-64
2022/07/25 11:26:25;;;;;;;10.52;8.85;;;31.80;89.30;34.40;96649.00;;;;5103658;28;20705;-65
2022/07/25 11:29:22;;;;;;;10.73;9.10;;;32.10;87.00;34.30;96642.00;;;;5103264;28;20210;-66
2022/07/25 11:32:13;;;;;;;10.23;9.23;;;32.40;88.00;34.60;96648.00;;;;5098388;28;20212;-65
2022/07/25 11:35:03;;;;;;;10.50;8.95;;;32.50;88.10;34.60;96651.00;;;;5096424;28;20211;-65
2022/07/25 11:37:53;;;;;;;10.05;9.20;;;32.70;86.50;34.60;96632.00;;;;5108091;27;20317;-65
2022/07/25 11:40:43;;;;;;;10.95;9.95;;;32.70;85.80;34.00;96628.00;;;;5098688;28;20205;-65
2022/07/25 11:43:32;;;;;;;10.25;9.30;;;32.70;83.90;35.10;96622.00;;;;5098446;27;20211;-66
2022/07/25 11:46:21;;;;;;;10.40;9.40;;;32.80;84.00;35.30;96631.00;;;;5112104;27;20224;-65
2022/07/25 11:49:09;;;;;;;10.18;9.05;;;33.10;86.20;34.70;96619.00;;;;5093842;28;20210;-66
2022/07/25 11:51:59;;;;;;;10.60;9.60;;;33.00;82.40;35.20;96616.00;;;;5097199;28;20205;-66
2022/07/25 11:54:54;;;;;;;9.75;8.75;;;33.20;85.10;35.80;96621.00;;;;5101550;28;20195;-67
2022/07/25 11:57:46;;;;;;;10.40;9.40;;;33.40;84.30;35.10;96616.00;;;;5096499;28;20230;-66
2022/07/25 12:00:41;;;;;;;11.20;10.05;;;33.70;82.00;34.30;96613.00;;;;5089403;28;20214;-69
2022/07/25 12:03:38;;;;;;;16.23;9.88;;;33.40;81.70;36.10;96620.00;;;;5103889;28;20204;-66
2022/07/25 12:06:30;;;;;;;9.48;8.60;;;33.20;85.00;35.90;96609.00;;;;5104129;28;20222;-66
2022/07/25 12:09:22;;;;;;;9.77;8.98;;;33.80;81.90;36.60;96610.00;;;;5108727;27;20194;-66
2022/07/25 12:12:11;;;;;;;10.13;9.18;;;;;36.30;96596.00;;;;5107193;28;20202;-66
2022/07/25 12:14:59;;;;;;;10.75;9.75;;;34.20;77.60;35.20;96603.00;;;;5111588;28;20281;-65
2022/07/25 12:17:49;;;;;;;8.77;8.07;;;34.10;76.80;36.70;96600.00;;;;5111799;28;20218;-67
2022/07/25 12:20:41;;;;;;;9.02;8.13;;;34.00;79.40;37.20;96591.00;;;;5115265;27;20220;-66
2022/07/25 12:23:30;;;;;;;9.98;8.63;;;34.30;79.60;35.60;96589.00;;;;5109657;27;20232;-69
2022/07/25 12:26:21;;;;;;;10.85;9.25;;;34.50;78.50;36.40;96585.00;;;;5109971;27;20612;-65